createdAt,value
2019-04-29T00:00:44.998Z,61.90
2019-04-29T00:03:13.780Z,61.90
2019-04-29T00:05:42.598Z,62.30
2019-04-29T00:08:11.370Z,62.20
2019-04-29T00:10:40.096Z,62.50
2019-04-29T00:13:08.977Z,62.40
2019-04-29T00:15:45.478Z,62.00
2019-04-29T00:18:15.885Z,61.90
2019-04-29T00:20:46.276Z,61.90
2019-04-29T00:23:15.130Z,62.10
2019-04-29T00:25:43.988Z,62.30
2019-04-29T00:28:13.049Z,62.50
2019-04-29T00:30:41.868Z,62.40
2019-04-29T00:33:10.827Z,62.20
2019-04-29T00:35:39.727Z,62.20
2019-04-29T00:38:19.163Z,62.30
2019-04-29T00:41:07.509Z,62.30
2019-04-29T00:43:40.352Z,62.40
2019-04-29T00:46:10.671Z,62.70
2019-04-29T00:48:39.585Z,62.50
2019-04-29T00:51:08.486Z,62.70
2019-04-29T00:53:37.318Z,62.50
2019-04-29T00:56:06.268Z,62.50
2019-04-29T00:58:35.142Z,62.70
2019-04-29T01:01:09.305Z,62.80
2019-04-29T01:03:41.074Z,62.70
2019-04-29T01:06:09.056Z,62.80
2019-04-29T01:08:37.879Z,62.70
2019-04-29T01:11:06.793Z,62.70
2019-04-29T01:13:35.588Z,62.70
2019-04-29T01:16:04.340Z,62.90
2019-04-29T01:18:33.103Z,63.20
2019-04-29T01:21:01.887Z,63.50
2019-04-29T01:23:30.649Z,63.50
2019-04-29T01:26:03.834Z,63.80
2019-04-29T01:28:37.152Z,64.00
2019-04-29T01:31:08.052Z,63.70
2019-04-29T01:33:36.907Z,64.10
2019-04-29T01:36:22.640Z,64.20
2019-04-29T01:38:53.041Z,64.40
2019-04-29T01:41:39.495Z,64.40
2019-04-29T01:44:09.615Z,64.20
2019-04-29T01:46:38.846Z,64.20
2019-04-29T01:49:07.668Z,64.10
2019-04-29T01:51:36.433Z,64.20
2019-04-29T01:54:05.240Z,64.00
2019-04-29T01:56:34.101Z,64.20
2019-04-29T01:59:02.915Z,64.50
2019-04-29T02:01:31.742Z,64.30
2019-04-29T02:04:01.518Z,64.10
2019-04-29T02:06:30.362Z,64.40
2019-04-29T02:08:59.288Z,64.60
2019-04-29T02:11:28.168Z,64.80
2019-04-29T02:13:56.938Z,64.90
2019-04-29T02:16:25.750Z,65.10
2019-04-29T02:18:54.568Z,64.80
2019-04-29T02:21:23.337Z,64.80
2019-04-29T02:23:53.742Z,64.90
2019-04-29T02:26:22.571Z,65.10
2019-04-29T02:28:51.335Z,65.00
2019-04-29T02:31:38.399Z,64.80
2019-04-29T02:34:07.686Z,64.50
2019-04-29T02:36:36.589Z,64.50
2019-04-29T02:39:11.321Z,64.40
2019-04-29T02:41:44.366Z,65.30
2019-04-29T02:44:13.513Z,64.50
2019-04-29T02:46:42.277Z,64.40
2019-04-29T02:49:11.080Z,64.40
2019-04-29T02:51:44.513Z,64.20
2019-04-29T02:54:13.409Z,64.20
2019-04-29T02:56:43.810Z,64.20
2019-04-29T02:59:14.315Z,64.10
2019-04-29T03:01:45.038Z,64.10
2019-04-29T03:04:18.277Z,64.10
2019-04-29T03:06:48.869Z,64.00
2019-04-29T03:09:17.733Z,63.90
2019-04-29T03:11:46.533Z,63.90
2019-04-29T03:14:15.298Z,64.20
2019-04-29T03:16:44.161Z,64.20
2019-04-29T03:19:18.375Z,64.10
2019-04-29T03:21:51.486Z,64.20
2019-04-29T03:24:20.266Z,64.20
2019-04-29T03:26:49.018Z,64.20
2019-04-29T03:29:23.565Z,64.40
2019-04-29T03:31:53.705Z,64.40
2019-04-29T03:34:22.652Z,64.40
2019-04-29T03:36:51.481Z,64.40
2019-04-29T03:39:20.322Z,64.20
2019-04-29T03:41:49.179Z,64.30
2019-04-29T03:44:17.952Z,64.30
2019-04-29T03:46:46.696Z,64.20
2019-04-29T03:49:15.566Z,64.50
2019-04-29T03:51:44.311Z,64.50
2019-04-29T03:54:13.152Z,64.50
2019-04-29T03:56:42.871Z,64.80
2019-04-29T03:59:11.676Z,65.20
2019-04-29T04:01:42.103Z,65.40
2019-04-29T04:04:15.459Z,65.70
2019-04-29T04:06:45.830Z,65.90
2019-04-29T04:09:17.145Z,65.90
2019-04-29T04:11:45.952Z,66.10
2019-04-29T04:14:14.824Z,66.10
2019-04-29T04:17:03.504Z,66.40
2019-04-29T04:19:33.590Z,66.60
2019-04-29T04:22:02.299Z,66.80
2019-04-29T04:24:31.134Z,66.80
2019-04-29T04:26:59.962Z,66.70
2019-04-29T04:29:28.843Z,67.00
2019-04-29T04:31:57.689Z,67.00
2019-04-29T04:34:26.526Z,67.00
2019-04-29T04:36:55.339Z,67.50
2019-04-29T04:39:25.197Z,67.50
2019-04-29T04:41:53.952Z,67.30
2019-04-29T04:44:24.392Z,67.40
2019-04-29T04:46:53.151Z,67.40
2019-04-29T04:49:22.000Z,67.40
2019-04-29T04:51:50.823Z,67.50
2019-04-29T04:54:19.649Z,67.50
2019-04-29T04:56:48.429Z,67.50
2019-04-29T04:59:17.192Z,67.30
2019-04-29T05:01:45.967Z,67.50
2019-04-29T05:04:14.722Z,67.20
2019-04-29T05:06:43.488Z,67.00
2019-04-29T05:09:13.203Z,66.90
2019-04-29T05:11:42.912Z,66.90
2019-04-29T05:14:11.693Z,66.70
2019-04-29T05:16:40.437Z,66.60
2019-04-29T05:19:09.199Z,66.40
2019-04-29T05:21:38.065Z,66.30
2019-04-29T05:24:06.831Z,66.20
2019-04-29T05:26:35.592Z,66.10
2019-04-29T05:29:04.479Z,66.40
2019-04-29T05:31:33.230Z,66.20
2019-04-29T05:34:02.131Z,66.30
2019-04-29T05:36:44.325Z,66.10
2019-04-29T05:39:20.721Z,66.10
2019-04-29T05:41:49.469Z,66.30
2019-04-29T05:44:22.375Z,66.50
2019-04-29T05:46:52.797Z,66.30
2019-04-29T05:49:23.219Z,66.30
2019-04-29T05:52:05.540Z,66.20
2019-04-29T05:54:35.589Z,66.50
2019-04-29T05:57:04.341Z,66.40
2019-04-29T05:59:33.110Z,66.20
2019-04-29T06:02:01.920Z,66.00
2019-04-29T06:04:30.695Z,65.70
2019-04-29T06:06:59.492Z,65.40
2019-04-29T06:09:28.296Z,65.00
2019-04-29T06:11:57.064Z,64.80
2019-04-29T06:14:26.862Z,64.50
2019-04-29T06:16:57.483Z,64.30
2019-04-29T06:19:26.176Z,63.90
2019-04-29T06:21:54.888Z,64.20
2019-04-29T06:24:23.669Z,64.40
2019-04-29T06:26:52.466Z,64.80
2019-04-29T06:29:21.210Z,64.50
2019-04-29T06:31:50.034Z,64.30
2019-04-29T06:34:18.818Z,64.60
2019-04-29T06:36:47.625Z,63.80
2019-04-29T06:39:16.472Z,63.00
2019-04-29T06:41:46.926Z,63.40
2019-04-29T06:44:16.740Z,63.30
2019-04-29T06:46:45.798Z,63.30
2019-04-29T06:49:14.665Z,63.30
2019-04-29T06:51:43.505Z,63.20
2019-04-29T06:54:12.287Z,63.20
2019-04-29T06:56:41.094Z,63.20
2019-04-29T06:59:12.112Z,63.10
2019-04-29T07:01:40.557Z,63.20
2019-04-29T07:04:09.343Z,63.40
2019-04-29T07:06:38.186Z,63.10
2019-04-29T07:09:07.475Z,62.20
2019-04-29T07:11:38.442Z,61.70
2019-04-29T07:14:07.654Z,61.90
2019-04-29T07:16:37.366Z,61.70
2019-04-29T07:19:06.123Z,61.40
2019-04-29T07:21:34.979Z,61.10
2019-04-29T07:24:03.752Z,61.20
2019-04-29T07:26:32.585Z,60.70
2019-04-29T07:29:01.335Z,60.50
2019-04-29T07:31:33.250Z,59.70
2019-04-29T07:34:00.601Z,59.10
2019-04-29T07:36:29.376Z,59.20
2019-04-29T07:38:58.126Z,58.90
2019-04-29T07:41:26.931Z,58.40
2019-04-29T07:43:55.759Z,58.90
2019-04-29T07:46:55.766Z,57.20
2019-04-29T07:49:08.464Z,57.60
2019-04-29T07:51:39.440Z,57.00
2019-04-29T07:54:11.188Z,57.10
2019-04-29T07:56:42.217Z,56.80
2019-04-29T07:59:11.131Z,56.60
2019-04-29T08:01:38.997Z,56.40
2019-04-29T08:04:07.833Z,56.30
2019-04-29T08:06:38.257Z,55.50
2019-04-29T08:09:09.700Z,55.20
2019-04-29T08:11:38.565Z,55.50
2019-04-29T08:14:07.386Z,55.40
2019-04-29T08:16:36.178Z,55.60
2019-04-29T08:19:05.269Z,55.60
2019-04-29T08:21:34.306Z,54.50
2019-04-29T08:24:03.072Z,53.50
2019-04-29T08:26:33.684Z,52.20
2019-04-29T08:29:02.404Z,52.80
2019-04-29T08:31:31.181Z,53.10
2019-04-29T08:34:00.015Z,53.30
2019-04-29T08:36:28.887Z,53.40
2019-04-29T08:39:07.997Z,53.20
2019-04-29T08:41:29.855Z,53.10
2019-04-29T08:44:16.339Z,52.70
2019-04-29T08:46:53.265Z,51.40
2019-04-29T08:49:22.107Z,51.80
2019-04-29T08:51:50.951Z,51.30
2019-04-29T08:54:20.167Z,51.20
2019-04-29T08:57:02.257Z,50.50
2019-04-29T08:59:20.679Z,50.50
2019-04-29T09:01:50.908Z,50.40
2019-04-29T09:04:19.631Z,50.30
2019-04-29T09:06:48.459Z,49.50
2019-04-29T09:09:28.809Z,49.30
2019-04-29T09:11:48.322Z,48.60
2019-04-29T09:14:18.317Z,47.00
2019-04-29T09:16:47.152Z,47.30
2019-04-29T09:19:15.982Z,47.80
2019-04-29T09:21:46.355Z,49.00
2019-04-29T09:24:15.179Z,47.00
2019-04-29T09:26:45.580Z,46.40
2019-04-29T09:29:31.026Z,45.80
2019-04-29T09:32:00.139Z,45.10
2019-04-29T09:34:28.983Z,45.40
2019-04-29T09:36:57.860Z,45.90
2019-04-29T09:39:26.680Z,45.80
2019-04-29T09:41:59.750Z,45.20
2019-04-29T09:44:40.360Z,45.00
2019-04-29T09:47:08.509Z,43.30
2019-04-29T09:49:37.577Z,43.80
2019-04-29T09:52:06.526Z,43.80
2019-04-29T09:54:35.377Z,42.90
2019-04-29T09:57:04.144Z,43.50
2019-04-29T09:59:37.582Z,42.40
2019-04-29T10:02:16.770Z,40.80
2019-04-29T10:04:56.629Z,42.10
2019-04-29T10:07:23.683Z,42.20
2019-04-29T10:09:57.389Z,42.20
2019-04-29T10:12:22.935Z,42.90
2019-04-29T10:14:51.785Z,43.40
2019-04-29T10:17:31.407Z,41.80
2019-04-29T10:20:01.815Z,41.90
2019-04-29T10:22:30.645Z,42.70
2019-04-29T10:24:59.481Z,43.60
2019-04-29T10:27:28.303Z,44.00
2019-04-29T10:29:57.243Z,42.50
2019-04-29T10:32:26.079Z,41.80
2019-04-29T10:34:54.954Z,42.20
2019-04-29T10:37:31.337Z,41.80
2019-04-29T10:40:12.217Z,42.20
2019-04-29T10:42:42.653Z,42.10
2019-04-29T10:45:13.456Z,41.30
2019-04-29T10:47:46.772Z,41.50
2019-04-29T10:50:20.040Z,42.00
2019-04-29T10:52:48.825Z,41.40
2019-04-29T10:55:18.709Z,41.20
2019-04-29T10:57:49.778Z,41.60
2019-04-29T11:00:25.010Z,41.80
2019-04-29T11:02:53.870Z,41.90
2019-04-29T11:05:24.274Z,41.20
2019-04-29T11:07:58.203Z,40.70
2019-04-29T11:10:32.304Z,40.00
2019-04-29T11:13:01.186Z,39.90
2019-04-29T11:15:32.706Z,40.50
2019-04-29T11:18:03.673Z,40.70
2019-04-29T11:20:32.703Z,40.20
2019-04-29T11:23:14.976Z,41.20
2019-04-29T11:25:50.836Z,40.00
2019-04-29T11:28:16.105Z,40.20
2019-04-29T11:30:52.356Z,40.40
2019-04-29T11:33:42.539Z,40.60
2019-04-29T11:36:15.938Z,41.30
2019-04-29T11:38:44.853Z,40.40
2019-04-29T11:41:19.670Z,40.40
2019-04-29T11:43:46.751Z,40.30
2019-04-29T11:46:15.755Z,39.80
2019-04-29T11:48:44.834Z,39.80
2019-04-29T11:51:15.211Z,40.40
2019-04-29T11:53:44.055Z,40.60
2019-04-29T11:56:13.023Z,39.80
2019-04-29T11:58:46.140Z,38.90
2019-04-29T12:01:19.536Z,39.30
2019-04-29T12:03:56.475Z,38.30
2019-04-29T12:06:24.964Z,38.50
2019-04-29T12:08:55.116Z,39.20
2019-04-29T12:11:24.093Z,39.20
2019-04-29T12:14:04.563Z,39.70
2019-04-29T12:16:35.048Z,39.30
2019-04-29T12:19:17.057Z,38.90
2019-04-29T12:21:46.877Z,39.10
2019-04-29T12:24:15.665Z,39.10
2019-04-29T12:26:44.692Z,38.70
2019-04-29T12:29:17.619Z,37.80
2019-04-29T12:31:49.315Z,38.20
2019-04-29T12:34:36.844Z,38.40
2019-04-29T12:37:07.794Z,38.70
2019-04-29T12:39:45.067Z,38.90
2019-04-29T12:42:15.572Z,38.80
2019-04-29T12:45:00.919Z,39.20
2019-04-29T12:47:33.935Z,38.30
2019-04-29T12:50:02.722Z,38.30
2019-04-29T12:52:31.543Z,38.50
2019-04-29T12:55:07.044Z,39.20
2019-04-29T12:57:30.931Z,39.10
2019-04-29T12:59:59.745Z,37.90
2019-04-29T13:02:30.217Z,38.00
2019-04-29T13:05:00.596Z,38.40
2019-04-29T13:07:30.997Z,38.20
2019-04-29T13:10:13.615Z,37.50
2019-04-29T13:12:44.409Z,38.60
2019-04-29T13:15:14.038Z,37.80
2019-04-29T13:18:04.112Z,37.80
2019-04-29T13:20:33.225Z,37.80
2019-04-29T13:23:17.033Z,36.90
2019-04-29T13:25:32.621Z,36.80
2019-04-29T13:28:04.000Z,36.50
2019-04-29T13:30:31.834Z,37.10
2019-04-29T13:33:01.170Z,37.30
2019-04-29T13:35:31.206Z,37.30
2019-04-29T13:38:00.166Z,36.80
2019-04-29T13:40:33.086Z,36.10
2019-04-29T13:42:59.869Z,36.50
2019-04-29T13:45:36.275Z,36.40
2019-04-29T13:48:09.766Z,36.70
2019-04-29T13:50:43.019Z,36.40
2019-04-29T13:53:16.730Z,37.10
2019-04-29T13:55:50.109Z,36.70
2019-04-29T13:58:13.150Z,36.90
2019-04-29T14:00:55.771Z,37.20
2019-04-29T14:03:36.808Z,37.00
2019-04-29T14:06:07.231Z,37.30
2019-04-29T14:08:36.058Z,37.20
2019-04-29T14:11:05.216Z,37.50
2019-04-29T14:13:33.978Z,37.60
2019-04-29T14:16:02.806Z,37.70
2019-04-29T14:18:34.936Z,37.30
2019-04-29T14:21:02.043Z,37.10
2019-04-29T14:23:30.871Z,36.30
2019-04-29T14:25:59.673Z,35.30
2019-04-29T14:28:28.416Z,35.70
2019-04-29T14:30:57.231Z,35.00
2019-04-29T14:33:27.664Z,34.80
2019-04-29T14:36:04.172Z,34.60
2019-04-29T14:38:35.905Z,33.90
2019-04-29T14:41:03.412Z,33.30
2019-04-29T14:43:43.010Z,33.10
2019-04-29T14:46:29.749Z,33.60
2019-04-29T14:49:04.515Z,33.60
2019-04-29T14:51:36.670Z,34.40
2019-04-29T14:54:05.254Z,34.20
2019-04-29T14:56:31.703Z,34.20
2019-04-29T14:59:07.147Z,34.70
2019-04-29T15:01:35.676Z,34.40
2019-04-29T15:04:17.781Z,34.50
2019-04-29T15:06:36.776Z,35.00
2019-04-29T15:09:16.861Z,35.70
2019-04-29T15:11:45.600Z,36.00
2019-04-29T15:14:31.992Z,36.40
2019-04-29T15:17:05.370Z,36.50
2019-04-29T15:19:48.865Z,36.90
2019-04-29T15:22:16.823Z,37.10
2019-04-29T15:24:45.567Z,37.50
2019-04-29T15:27:14.337Z,37.60
2019-04-29T15:29:43.245Z,38.00
2019-04-29T15:32:12.080Z,38.30
2019-04-29T15:34:43.891Z,38.20
2019-04-29T15:37:11.382Z,38.40
2019-04-29T15:39:40.768Z,38.60
2019-04-29T15:42:10.634Z,38.60
2019-04-29T15:44:39.569Z,38.60
2019-04-29T15:47:08.404Z,38.90
2019-04-29T15:49:37.240Z,39.20
2019-04-29T15:52:06.041Z,39.40
2019-04-29T15:54:34.803Z,39.40
2019-04-29T15:57:09.109Z,39.50
2019-04-29T15:59:47.830Z,39.40
2019-04-29T16:02:06.368Z,39.60
2019-04-29T16:04:39.415Z,39.70
2019-04-29T16:07:26.089Z,40.00
2019-04-29T16:10:02.231Z,40.30
2019-04-29T16:12:32.611Z,40.30
2019-04-29T16:15:01.367Z,40.50
2019-04-29T16:17:31.890Z,40.40
2019-04-29T16:20:00.659Z,40.40
2019-04-29T16:22:29.422Z,40.30
2019-04-29T16:24:59.357Z,40.40
2019-04-29T16:27:28.549Z,40.50
2019-04-29T16:29:57.483Z,40.50
2019-04-29T16:32:33.783Z,40.80
2019-04-29T16:35:02.598Z,41.10
2019-04-29T16:37:32.154Z,41.40
2019-04-29T16:40:01.836Z,41.50
2019-04-29T16:42:35.193Z,41.60
2019-04-29T16:45:06.141Z,41.90
2019-04-29T16:47:35.839Z,42.30
2019-04-29T16:50:08.158Z,42.40
2019-04-29T16:52:43.921Z,42.80
2019-04-29T16:55:08.007Z,42.90
2019-04-29T16:57:36.823Z,43.20
2019-04-29T17:00:14.064Z,43.50
2019-04-29T17:02:39.492Z,43.60
2019-04-29T17:05:08.725Z,43.50
2019-04-29T17:07:37.563Z,43.60
2019-04-29T17:10:25.630Z,43.70
2019-04-29T17:12:54.470Z,43.90
2019-04-29T17:15:26.060Z,44.10
2019-04-29T17:17:54.825Z,44.30
2019-04-29T17:20:23.753Z,44.70
2019-04-29T17:22:52.601Z,44.90
2019-04-29T17:25:21.688Z,45.30
2019-04-29T17:28:11.418Z,45.50
2019-04-29T17:30:38.300Z,45.60
2019-04-29T17:33:08.370Z,45.80
2019-04-29T17:35:42.898Z,46.20
2019-04-29T17:38:08.895Z,46.20
2019-04-29T17:40:50.484Z,46.40
2019-04-29T17:43:28.992Z,46.60
2019-04-29T17:46:08.135Z,47.10
2019-04-29T17:48:48.667Z,47.10
2019-04-29T17:51:18.111Z,47.30
2019-04-29T17:53:51.588Z,47.50
2019-04-29T17:56:22.018Z,47.70
2019-04-29T17:58:59.871Z,47.90
2019-04-29T18:01:44.711Z,48.10
2019-04-29T18:04:20.139Z,48.30
2019-04-29T18:06:58.690Z,48.60
2019-04-29T18:09:39.832Z,48.70
2019-04-29T18:12:10.298Z,48.80
2019-04-29T18:14:41.847Z,49.00
2019-04-29T18:17:11.440Z,49.20
2019-04-29T18:19:41.856Z,49.20
2019-04-29T18:22:16.243Z,49.40
2019-04-29T18:25:03.120Z,49.60
2019-04-29T18:27:35.053Z,49.70
2019-04-29T18:30:06.903Z,49.70
2019-04-29T18:32:38.082Z,49.90
2019-04-29T18:35:06.260Z,50.20
2019-04-29T18:37:38.312Z,50.40
2019-04-29T18:40:06.131Z,50.50
2019-04-29T18:42:38.439Z,50.80
2019-04-29T18:45:06.435Z,51.00
2019-04-29T18:47:38.639Z,51.10
2019-04-29T18:50:09.346Z,51.20
2019-04-29T18:52:38.196Z,51.40
2019-04-29T18:55:07.490Z,51.30
2019-04-29T18:57:36.332Z,51.30
2019-04-29T19:00:12.694Z,51.30
2019-04-29T19:02:45.384Z,51.40
2019-04-29T19:05:17.352Z,51.50
2019-04-29T19:07:54.976Z,51.70
2019-04-29T19:10:18.687Z,51.70
2019-04-29T19:12:57.379Z,51.70
2019-04-29T19:15:18.105Z,51.70
2019-04-29T19:17:58.734Z,51.80
2019-04-29T19:20:18.667Z,52.10
2019-04-29T19:22:47.712Z,52.30
2019-04-29T19:25:16.453Z,52.60
2019-04-29T19:27:45.503Z,52.70
2019-04-29T19:30:20.778Z,52.90
2019-04-29T19:32:46.812Z,52.90
2019-04-29T19:35:16.967Z,53.00
2019-04-29T19:37:46.003Z,53.00
2019-04-29T19:40:15.159Z,53.10
2019-04-29T19:42:46.892Z,53.20
2019-04-29T19:45:15.541Z,53.40
2019-04-29T19:47:47.405Z,53.40
2019-04-29T19:50:18.281Z,53.40
2019-04-29T19:52:45.855Z,53.40
2019-04-29T19:55:14.624Z,53.40
2019-04-29T19:57:48.221Z,53.50
2019-04-29T20:00:17.157Z,53.60
2019-04-29T20:02:48.233Z,53.70
2019-04-29T20:05:23.818Z,53.90
2019-04-29T20:07:51.136Z,53.90
2019-04-29T20:10:21.089Z,54.10
2019-04-29T20:12:53.229Z,54.20
2019-04-29T20:15:21.404Z,54.20
2019-04-29T20:18:08.558Z,54.30
2019-04-29T20:20:47.772Z,54.10
2019-04-29T20:23:24.734Z,54.20
2019-04-29T20:25:48.469Z,54.30
2019-04-29T20:28:20.259Z,54.50
2019-04-29T20:30:50.521Z,54.50
2019-04-29T20:33:18.610Z,54.60
2019-04-29T20:35:49.042Z,54.60
2019-04-29T20:38:18.219Z,54.70
2019-04-29T20:40:47.210Z,54.80
2019-04-29T20:43:16.473Z,54.80
2019-04-29T20:45:46.666Z,54.90
2019-04-29T20:48:19.379Z,55.00
2019-04-29T20:50:52.447Z,55.10
2019-04-29T20:53:18.021Z,55.00
2019-04-29T20:55:46.983Z,55.00
2019-04-29T20:58:16.092Z,55.00
2019-04-29T21:00:45.240Z,54.90
2019-04-29T21:03:14.325Z,55.00
2019-04-29T21:05:48.120Z,55.40
2019-04-29T21:08:16.319Z,55.40
2019-04-29T21:10:46.409Z,55.50
2019-04-29T21:13:20.227Z,55.70
2019-04-29T21:15:59.416Z,55.80
2019-04-29T21:18:27.506Z,55.80
2019-04-29T21:20:59.594Z,55.80
2019-04-29T21:23:31.416Z,55.90
2019-04-29T21:26:00.543Z,56.00
2019-04-29T21:28:31.577Z,56.00
2019-04-29T21:30:58.141Z,56.00
2019-04-29T21:33:26.998Z,56.00
2019-04-29T21:36:03.065Z,56.00
2019-04-29T21:38:55.725Z,56.00
2019-04-29T21:41:27.441Z,55.90
2019-04-29T21:43:56.839Z,55.90
2019-04-29T21:46:29.372Z,55.80
2019-04-29T21:48:56.148Z,55.70
2019-04-29T21:51:25.555Z,55.90
2019-04-29T21:53:56.010Z,55.90
2019-04-29T21:56:25.781Z,55.80
2019-04-29T21:58:54.626Z,56.40
2019-04-29T22:01:25.156Z,55.70
2019-04-29T22:03:57.703Z,55.60
2019-04-29T22:06:28.672Z,55.60
2019-04-29T22:09:01.065Z,55.40
2019-04-29T22:11:25.811Z,55.40
2019-04-29T22:13:55.499Z,55.40
2019-04-29T22:16:25.157Z,55.30
2019-04-29T22:18:55.413Z,55.30
2019-04-29T22:21:25.918Z,55.30
2019-04-29T22:23:55.236Z,55.30
2019-04-29T22:26:26.915Z,55.40
2019-04-29T22:29:01.684Z,55.40
2019-04-29T22:31:28.356Z,55.40
2019-04-29T22:33:57.381Z,55.50
2019-04-29T22:36:25.992Z,55.70
2019-04-29T22:38:55.805Z,56.20
2019-04-29T22:41:30.053Z,56.50
2019-04-29T22:44:17.074Z,57.10
2019-04-29T22:46:44.731Z,57.20
2019-04-29T22:49:13.408Z,57.30
2019-04-29T22:51:42.173Z,57.30
2019-04-29T22:54:11.057Z,57.40
2019-04-29T22:56:40.721Z,57.80
2019-04-29T22:59:09.562Z,57.60
2019-04-29T23:01:42.361Z,57.70
2019-04-29T23:04:09.548Z,57.60
2019-04-29T23:06:39.765Z,58.20
2019-04-29T23:09:12.092Z,58.40
2019-04-29T23:11:40.774Z,58.20
2019-04-29T23:14:10.199Z,58.40
2019-04-29T23:16:39.075Z,58.40
2019-04-29T23:19:09.816Z,58.50
2019-04-29T23:21:47.246Z,58.40
2019-04-29T23:24:23.770Z,58.40
2019-04-29T23:26:52.609Z,58.40
2019-04-29T23:29:21.389Z,58.40
2019-04-29T23:31:50.243Z,58.50
2019-04-29T23:34:19.074Z,58.50
2019-04-29T23:36:48.829Z,58.40
2019-04-29T23:39:17.961Z,58.20
2019-04-29T23:41:46.792Z,58.20
2019-04-29T23:44:16.413Z,58.10
2019-04-29T23:46:47.389Z,58.00
2019-04-29T23:49:15.651Z,57.90
2019-04-29T23:51:46.327Z,58.00
2019-04-29T23:54:15.268Z,58.00
2019-04-29T23:57:05.998Z,57.90
2019-04-29T23:59:35.927Z,58.10
